ARG1502 SABE-SASA
Flight info
| Callsign | ARG1502 |
|---|---|
| Flight time | 1h 55m |
| Altitude | 36000 |
| Route | BIVAM4B BIVAM UW8 ERE UT672 DADMI UT677 ILPAR ILPAR2M |
| Aircraft | B738/M-SDE2E3FGHIRWXY/LB1 |
Departure
| Time | 2026-04-21 18:47 |
|---|---|
| Airport | Aeroparque Jorge Newbery (SABE) |
Arrival
| Time | 2026-04-21 20:43 |
|---|---|
| Airport | Martín Miguel de Güemes International Airport (SASA) |
| Time | Latitude | Longitude | Altitude | Speed | Heading |
|---|---|---|---|---|---|
| 2026-04-21 18:03 | -34.55739 | -58.41366 | 25 ft | 0 kts | 33° |
| 2026-04-21 18:04 | -34.55718 | -58.41404 | 28 ft | 0 kts | 31° |
| 2026-04-21 18:36 | -34.55737 | -58.41418 | 27 ft | 4 kts | 25° |
| 2026-04-21 18:37 | -34.55758 | -58.41424 | 28 ft | 4 kts | 322° |
| 2026-04-21 18:37 | -34.55771 | -58.41402 | 30 ft | 4 kts | 304° |
| 2026-04-21 18:37 | -34.55780 | -58.41387 | 24 ft | 0 kts | 304° |
| 2026-04-21 18:42 | -34.55780 | -58.41388 | 24 ft | 1 kts | 304° |
| 2026-04-21 18:42 | -34.55768 | -58.41408 | 25 ft | 5 kts | 304° |
| 2026-04-21 18:42 | -34.55739 | -58.41466 | 26 ft | 10 kts | 299° |
| 2026-04-21 18:42 | -34.55732 | -58.41551 | 24 ft | 11 kts | 232° |
| 2026-04-21 18:43 | -34.55796 | -58.41584 | 26 ft | 10 kts | 158° |
| 2026-04-21 18:43 | -34.55836 | -58.41513 | 25 ft | 11 kts | 117° |
| 2026-04-21 18:43 | -34.55876 | -58.41417 | 25 ft | 15 kts | 117° |
| 2026-04-21 18:43 | -34.55930 | -58.41295 | 26 ft | 16 kts | 121° |
| 2026-04-21 18:44 | -34.55997 | -58.41185 | 27 ft | 16 kts | 127° |
| 2026-04-21 18:44 | -34.56062 | -58.41081 | 27 ft | 15 kts | 127° |
| 2026-04-21 18:44 | -34.56124 | -58.40980 | 25 ft | 15 kts | 124° |
| 2026-04-21 18:44 | -34.56169 | -58.40874 | 26 ft | 14 kts | 98° |
| 2026-04-21 18:45 | -34.56206 | -58.40769 | 26 ft | 13 kts | 123° |
| 2026-04-21 18:45 | -34.56257 | -58.40677 | 26 ft | 13 kts | 124° |
| 2026-04-21 18:45 | -34.56307 | -58.40590 | 27 ft | 13 kts | 130° |
| 2026-04-21 18:45 | -34.56370 | -58.40518 | 24 ft | 12 kts | 138° |
| 2026-04-21 18:46 | -34.56432 | -58.40450 | 24 ft | 12 kts | 138° |
| 2026-04-21 18:46 | -34.56495 | -58.40386 | 26 ft | 12 kts | 156° |
| 2026-04-21 18:46 | -34.56557 | -58.40413 | 24 ft | 8 kts | 230° |
| 2026-04-21 18:46 | -34.56550 | -58.40457 | 27 ft | 0 kts | 303° |
| 2026-04-21 18:47 | -34.56526 | -58.40502 | 24 ft | 30 kts | 303° |
| 2026-04-21 18:47 | -34.56255 | -58.40987 | 26 ft | 107 kts | 304° |
| 2026-04-21 18:47 | -34.55714 | -58.41952 | 57 ft | 165 kts | 304° |
| 2026-04-21 18:47 | -34.55056 | -58.43146 | 747 ft | 174 kts | 302° |
| 2026-04-21 18:48 | -34.54249 | -58.44254 | 1617 ft | 180 kts | 325° |
| 2026-04-21 18:48 | -34.52973 | -58.44736 | 1953 ft | 209 kts | 356° |
| 2026-04-21 18:48 | -34.51466 | -58.44411 | 2226 ft | 233 kts | 23° |
| 2026-04-21 18:48 | -34.50015 | -58.43398 | 2578 ft | 252 kts | 30° |
| 2026-04-21 18:49 | -34.48490 | -58.42240 | 3181 ft | 264 kts | 30° |
| 2026-04-21 18:49 | -34.46937 | -58.41042 | 4063 ft | 266 kts | 30° |
| 2026-04-21 18:49 | -34.45878 | -58.40225 | 4642 ft | 268 kts | 30° |
| 2026-04-21 18:49 | -34.43756 | -58.38621 | 5681 ft | 273 kts | 23° |
| 2026-04-21 18:50 | -34.41923 | -58.38203 | 6431 ft | 270 kts | 349° |
| 2026-04-21 18:50 | -34.40410 | -58.38887 | 7133 ft | 265 kts | 324° |
| 2026-04-21 18:50 | -34.39015 | -58.40318 | 7960 ft | 263 kts | 313° |
| 2026-04-21 18:50 | -34.37756 | -58.41931 | 8787 ft | 264 kts | 311° |
| 2026-04-21 18:51 | -34.36633 | -58.43423 | 9549 ft | 265 kts | 311° |
| 2026-04-21 18:51 | -34.35407 | -58.45057 | 10297 ft | 269 kts | 311° |
| 2026-04-21 18:51 | -34.34099 | -58.46792 | 10532 ft | 291 kts | 311° |
| 2026-04-21 18:51 | -34.32680 | -58.48665 | 10715 ft | 314 kts | 311° |
| 2026-04-21 18:52 | -34.31149 | -58.50674 | 10899 ft | 334 kts | 312° |
| 2026-04-21 18:52 | -34.29718 | -58.52541 | 11309 ft | 342 kts | 312° |
| 2026-04-21 18:52 | -34.28084 | -58.54667 | 11958 ft | 346 kts | 312° |
| 2026-04-21 18:52 | -34.26441 | -58.56799 | 12661 ft | 347 kts | 312° |
| 2026-04-21 18:53 | -34.24791 | -58.58937 | 13336 ft | 350 kts | 312° |
| 2026-04-21 18:53 | -34.23121 | -58.61097 | 13960 ft | 353 kts | 312° |
| 2026-04-21 18:53 | -34.21438 | -58.63274 | 14543 ft | 356 kts | 312° |
| 2026-04-21 18:53 | -34.19742 | -58.65466 | 15128 ft | 358 kts | 312° |
| 2026-04-21 18:54 | -34.18033 | -58.67672 | 15716 ft | 361 kts | 312° |
| 2026-04-21 18:54 | -34.16312 | -58.69894 | 16288 ft | 363 kts | 312° |
| 2026-04-21 18:54 | -34.14579 | -58.72130 | 16859 ft | 366 kts | 311° |
| 2026-04-21 18:54 | -34.12832 | -58.74381 | 17436 ft | 369 kts | 311° |
| 2026-04-21 18:55 | -34.11647 | -58.75908 | 17808 ft | 370 kts | 311° |
| 2026-04-21 18:55 | -34.09300 | -58.78930 | 18484 ft | 374 kts | 311° |
| 2026-04-21 18:55 | -34.07515 | -58.81226 | 18961 ft | 376 kts | 311° |
| 2026-04-21 18:55 | -34.05723 | -58.83532 | 19458 ft | 377 kts | 311° |
| 2026-04-21 18:56 | -34.03925 | -58.85842 | 19942 ft | 379 kts | 311° |
| 2026-04-21 18:56 | -34.02113 | -58.88169 | 20414 ft | 382 kts | 311° |
| 2026-04-21 18:56 | -34.00292 | -58.90507 | 20897 ft | 383 kts | 310° |
| 2026-04-21 18:56 | -33.98458 | -58.92851 | 21372 ft | 385 kts | 311° |
| 2026-04-21 18:57 | -33.96454 | -58.95019 | 21809 ft | 390 kts | 319° |
| 2026-04-21 18:57 | -33.94173 | -58.96836 | 22237 ft | 395 kts | 324° |
| 2026-04-21 18:57 | -33.91808 | -58.98544 | 22693 ft | 397 kts | 324° |
| 2026-04-21 18:57 | -33.89427 | -59.00257 | 23114 ft | 400 kts | 324° |
| 2026-04-21 18:58 | -33.87038 | -59.01980 | 23516 ft | 402 kts | 324° |
| 2026-04-21 18:58 | -33.84639 | -59.03716 | 23859 ft | 403 kts | 324° |
| 2026-04-21 18:58 | -33.82233 | -59.05462 | 24204 ft | 405 kts | 323° |
| 2026-04-21 18:58 | -33.79819 | -59.07217 | 24525 ft | 406 kts | 323° |
| 2026-04-21 18:59 | -33.77394 | -59.08980 | 24837 ft | 408 kts | 323° |
| 2026-04-21 18:59 | -33.74959 | -59.10752 | 25154 ft | 410 kts | 323° |
| 2026-04-21 18:59 | -33.72514 | -59.12532 | 25463 ft | 412 kts | 323° |
| 2026-04-21 18:59 | -33.70060 | -59.14316 | 25773 ft | 413 kts | 323° |
| 2026-04-21 19:00 | -33.67600 | -59.16103 | 26057 ft | 415 kts | 323° |
| 2026-04-21 19:00 | -33.65123 | -59.17902 | 26331 ft | 417 kts | 323° |
| 2026-04-21 19:00 | -33.62635 | -59.19707 | 26601 ft | 419 kts | 323° |
| 2026-04-21 19:00 | -33.60137 | -59.21518 | 26877 ft | 420 kts | 323° |
| 2026-04-21 19:01 | -33.57628 | -59.23336 | 27136 ft | 422 kts | 323° |
| 2026-04-21 19:01 | -33.55112 | -59.25157 | 27384 ft | 424 kts | 323° |
| 2026-04-21 19:01 | -33.52579 | -59.26990 | 27629 ft | 426 kts | 323° |
| 2026-04-21 19:01 | -33.50042 | -59.28824 | 27887 ft | 427 kts | 323° |
| 2026-04-21 19:02 | -33.47496 | -59.30663 | 28127 ft | 428 kts | 323° |
| 2026-04-21 19:02 | -33.44941 | -59.32507 | 28423 ft | 429 kts | 323° |
| 2026-04-21 19:02 | -33.42392 | -59.34344 | 28793 ft | 427 kts | 322° |
| 2026-04-21 19:02 | -33.39849 | -59.36176 | 29177 ft | 425 kts | 322° |
| 2026-04-21 19:03 | -33.37321 | -59.37996 | 29520 ft | 425 kts | 322° |
| 2026-04-21 19:03 | -33.34786 | -59.39821 | 29824 ft | 425 kts | 322° |
| 2026-04-21 19:03 | -33.32255 | -59.41643 | 30143 ft | 425 kts | 322° |
| 2026-04-21 19:03 | -33.29725 | -59.43462 | 30455 ft | 423 kts | 322° |
| 2026-04-21 19:04 | -33.27211 | -59.45267 | 30771 ft | 422 kts | 322° |
| 2026-04-21 19:04 | -33.24693 | -59.47075 | 31080 ft | 421 kts | 322° |
| 2026-04-21 19:04 | -33.22187 | -59.48873 | 31408 ft | 420 kts | 321° |
| 2026-04-21 19:04 | -33.19692 | -59.50662 | 31745 ft | 418 kts | 321° |
| 2026-04-21 19:05 | -33.17199 | -59.52448 | 32045 ft | 417 kts | 321° |
| 2026-04-21 19:05 | -33.14712 | -59.54228 | 32305 ft | 417 kts | 321° |
| 2026-04-21 19:05 | -33.12228 | -59.56007 | 32555 ft | 417 kts | 321° |
| 2026-04-21 19:05 | -33.09739 | -59.57788 | 32824 ft | 416 kts | 321° |
| 2026-04-21 19:06 | -33.07261 | -59.59559 | 33106 ft | 415 kts | 321° |
| 2026-04-21 19:06 | -33.04789 | -59.61323 | 33381 ft | 414 kts | 321° |
| 2026-04-21 19:06 | -33.02287 | -59.63109 | 33639 ft | 413 kts | 320° |
| 2026-04-21 19:06 | -32.99821 | -59.64868 | 33904 ft | 413 kts | 320° |
| 2026-04-21 19:07 | -32.97392 | -59.66599 | 34160 ft | 412 kts | 320° |
| 2026-04-21 19:07 | -32.94940 | -59.68345 | 34410 ft | 410 kts | 320° |
| 2026-04-21 19:07 | -32.92497 | -59.70083 | 34647 ft | 409 kts | 320° |
| 2026-04-21 19:07 | -32.90057 | -59.71819 | 34878 ft | 407 kts | 320° |
| 2026-04-21 19:08 | -32.87600 | -59.73566 | 35116 ft | 406 kts | 320° |
| 2026-04-21 19:08 | -32.85180 | -59.75285 | 35361 ft | 404 kts | 320° |
| 2026-04-21 19:08 | -32.82772 | -59.76994 | 35605 ft | 403 kts | 320° |
| 2026-04-21 19:08 | -32.80396 | -59.78681 | 35803 ft | 402 kts | 320° |
| 2026-04-21 19:09 | -32.77997 | -59.80383 | 35983 ft | 402 kts | 320° |
| 2026-04-21 19:09 | -32.73164 | -59.83809 | 36039 ft | 401 kts | 320° |
| 2026-04-21 19:10 | -32.68407 | -59.87172 | 36027 ft | 395 kts | 319° |
| 2026-04-21 19:10 | -32.63715 | -59.90491 | 36034 ft | 391 kts | 319° |
| 2026-04-21 19:11 | -32.59049 | -59.93784 | 36037 ft | 389 kts | 319° |
| 2026-04-21 19:11 | -32.54414 | -59.97053 | 36044 ft | 387 kts | 319° |
| 2026-04-21 19:12 | -32.50566 | -59.99766 | 36052 ft | 388 kts | 319° |
| 2026-04-21 19:12 | -32.45921 | -60.03040 | 36053 ft | 389 kts | 319° |
| 2026-04-21 19:13 | -32.41253 | -60.06325 | 36053 ft | 392 kts | 319° |
| 2026-04-21 19:13 | -32.36546 | -60.09634 | 36049 ft | 395 kts | 319° |
| 2026-04-21 19:14 | -32.31805 | -60.12962 | 36045 ft | 397 kts | 319° |
| 2026-04-21 19:14 | -32.27047 | -60.16295 | 36050 ft | 398 kts | 319° |
| 2026-04-21 19:15 | -32.22275 | -60.19634 | 36051 ft | 399 kts | 319° |
| 2026-04-21 19:15 | -32.17500 | -60.22971 | 36048 ft | 399 kts | 319° |
| 2026-04-21 19:16 | -32.12736 | -60.26297 | 36050 ft | 397 kts | 319° |
| 2026-04-21 19:16 | -32.07980 | -60.29613 | 36051 ft | 396 kts | 319° |
| 2026-04-21 19:17 | -32.00912 | -60.34535 | 36053 ft | 394 kts | 319° |
| 2026-04-21 19:17 | -31.96191 | -60.37819 | 36039 ft | 393 kts | 319° |
| 2026-04-21 19:18 | -31.91490 | -60.41084 | 36047 ft | 391 kts | 319° |
| 2026-04-21 19:18 | -31.86959 | -60.44229 | 36046 ft | 390 kts | 319° |
| 2026-04-21 19:19 | -31.82291 | -60.47465 | 36046 ft | 389 kts | 319° |
| 2026-04-21 19:19 | -31.77684 | -60.50774 | 36046 ft | 386 kts | 317° |
| 2026-04-21 19:20 | -31.73199 | -60.54225 | 36050 ft | 385 kts | 316° |
| 2026-04-21 19:20 | -31.68710 | -60.57683 | 36050 ft | 386 kts | 317° |
| 2026-04-21 19:21 | -31.64175 | -60.61148 | 36052 ft | 387 kts | 317° |
| 2026-04-21 19:21 | -31.59660 | -60.64581 | 36056 ft | 387 kts | 317° |
| 2026-04-21 19:22 | -31.55167 | -60.67989 | 36052 ft | 388 kts | 317° |
| 2026-04-21 19:22 | -31.50630 | -60.71426 | 36048 ft | 388 kts | 317° |
| 2026-04-21 19:23 | -31.46095 | -60.74856 | 36055 ft | 388 kts | 317° |
| 2026-04-21 19:23 | -31.41561 | -60.78284 | 36062 ft | 388 kts | 317° |
| 2026-04-21 19:24 | -31.37026 | -60.81707 | 36063 ft | 388 kts | 317° |
| 2026-04-21 19:24 | -31.32493 | -60.85125 | 36063 ft | 387 kts | 317° |
| 2026-04-21 19:25 | -31.27965 | -60.88535 | 36061 ft | 387 kts | 317° |
| 2026-04-21 19:25 | -31.23446 | -60.91935 | 36060 ft | 385 kts | 317° |
| 2026-04-21 19:26 | -31.18943 | -60.95318 | 36064 ft | 384 kts | 317° |
| 2026-04-21 19:26 | -31.14460 | -60.98684 | 36062 ft | 383 kts | 317° |
| 2026-04-21 19:27 | -31.09987 | -61.02039 | 36066 ft | 381 kts | 317° |
| 2026-04-21 19:27 | -31.05500 | -61.05401 | 36069 ft | 380 kts | 317° |
| 2026-04-21 19:28 | -31.01076 | -61.08708 | 36064 ft | 380 kts | 317° |
| 2026-04-21 19:28 | -30.96597 | -61.12048 | 36068 ft | 380 kts | 317° |
| 2026-04-21 19:29 | -30.92147 | -61.15365 | 36071 ft | 380 kts | 317° |
| 2026-04-21 19:29 | -30.87696 | -61.18680 | 36069 ft | 380 kts | 317° |
| 2026-04-21 19:30 | -30.83236 | -61.21998 | 36071 ft | 381 kts | 317° |
| 2026-04-21 19:30 | -30.78770 | -61.25318 | 36072 ft | 381 kts | 317° |
| 2026-04-21 19:31 | -30.74294 | -61.28641 | 36072 ft | 382 kts | 317° |
| 2026-04-21 19:31 | -30.69806 | -61.31969 | 36074 ft | 383 kts | 317° |
| 2026-04-21 19:32 | -30.65314 | -61.35296 | 36063 ft | 383 kts | 317° |
| 2026-04-21 19:32 | -30.60810 | -61.38628 | 36068 ft | 384 kts | 317° |
| 2026-04-21 19:33 | -30.56307 | -61.41955 | 36076 ft | 384 kts | 317° |
| 2026-04-21 19:33 | -30.51796 | -61.45285 | 36069 ft | 384 kts | 318° |
| 2026-04-21 19:34 | -30.47355 | -61.48509 | 36053 ft | 368 kts | 317° |
| 2026-04-21 19:34 | -30.43111 | -61.51614 | 36053 ft | 353 kts | 317° |
| 2026-04-21 19:35 | -30.37092 | -61.56045 | 36060 ft | 331 kts | 316° |
| 2026-04-21 19:36 | -30.33286 | -61.58845 | 36057 ft | 317 kts | 316° |
| 2026-04-21 19:36 | -30.29645 | -61.61521 | 36057 ft | 303 kts | 315° |
| 2026-04-21 19:36 | -30.27890 | -61.62810 | 36057 ft | 295 kts | 315° |
| 2026-04-21 19:37 | -30.26176 | -61.64067 | 36060 ft | 288 kts | 315° |
| 2026-04-21 19:37 | -30.24508 | -61.65290 | 36055 ft | 280 kts | 315° |
| 2026-04-21 19:37 | -30.22887 | -61.66477 | 36057 ft | 272 kts | 314° |
| 2026-04-21 19:37 | -30.21305 | -61.67659 | 35992 ft | 272 kts | 313° |
| 2026-04-21 19:38 | -30.19699 | -61.68874 | 35776 ft | 281 kts | 314° |
| 2026-04-21 19:38 | -30.18029 | -61.70121 | 35534 ft | 290 kts | 314° |
| 2026-04-21 19:38 | -30.16895 | -61.70960 | 35418 ft | 295 kts | 315° |
| 2026-04-21 19:39 | -30.12736 | -61.74008 | 35451 ft | 306 kts | 315° |
| 2026-04-21 19:39 | -30.09063 | -61.76691 | 35170 ft | 325 kts | 316° |
| 2026-04-21 19:39 | -30.07116 | -61.78117 | 34966 ft | 337 kts | 316° |
| 2026-04-21 19:40 | -30.05104 | -61.79587 | 34758 ft | 348 kts | 317° |
| 2026-04-21 19:40 | -30.03021 | -61.81106 | 34545 ft | 360 kts | 317° |
| 2026-04-21 19:40 | -30.00870 | -61.82670 | 34331 ft | 371 kts | 317° |
| 2026-04-21 19:40 | -29.98658 | -61.84277 | 34160 ft | 380 kts | 317° |
| 2026-04-21 19:41 | -29.96391 | -61.85918 | 34123 ft | 387 kts | 318° |
| 2026-04-21 19:41 | -29.91801 | -61.89238 | 34356 ft | 391 kts | 318° |
| 2026-04-21 19:41 | -29.89501 | -61.90905 | 34632 ft | 389 kts | 318° |
| 2026-04-21 19:42 | -29.87214 | -61.92552 | 34930 ft | 387 kts | 320° |
| 2026-04-21 19:42 | -29.84857 | -61.94074 | 35177 ft | 389 kts | 321° |
| 2026-04-21 19:42 | -29.82471 | -61.95552 | 35368 ft | 390 kts | 321° |
| 2026-04-21 19:42 | -29.80076 | -61.97016 | 35566 ft | 390 kts | 322° |
| 2026-04-21 19:43 | -29.77683 | -61.98474 | 35805 ft | 388 kts | 322° |
| 2026-04-21 19:43 | -29.75301 | -61.99927 | 36039 ft | 387 kts | 322° |
| 2026-04-21 19:43 | -29.72928 | -62.01380 | 36257 ft | 386 kts | 321° |
| 2026-04-21 19:43 | -29.70556 | -62.02834 | 36454 ft | 386 kts | 321° |
| 2026-04-21 19:44 | -29.68197 | -62.04283 | 36668 ft | 385 kts | 321° |
| 2026-04-21 19:44 | -29.65842 | -62.05730 | 36876 ft | 384 kts | 321° |
| 2026-04-21 19:44 | -29.63487 | -62.07177 | 37076 ft | 383 kts | 321° |
| 2026-04-21 19:44 | -29.61141 | -62.08619 | 37262 ft | 382 kts | 321° |
| 2026-04-21 19:45 | -29.58795 | -62.10060 | 37450 ft | 382 kts | 321° |
| 2026-04-21 19:45 | -29.56482 | -62.11479 | 37635 ft | 381 kts | 321° |
| 2026-04-21 19:45 | -29.54120 | -62.12929 | 37823 ft | 380 kts | 321° |
| 2026-04-21 19:45 | -29.51782 | -62.14362 | 37994 ft | 379 kts | 321° |
| 2026-04-21 19:46 | -29.49454 | -62.15790 | 38067 ft | 380 kts | 321° |
| 2026-04-21 19:46 | -29.44772 | -62.18661 | 38079 ft | 382 kts | 322° |
| 2026-04-21 19:47 | -29.40091 | -62.21522 | 38071 ft | 381 kts | 322° |
| 2026-04-21 19:47 | -29.35426 | -62.24373 | 38074 ft | 379 kts | 322° |
| 2026-04-21 19:48 | -29.30771 | -62.27214 | 38075 ft | 379 kts | 322° |
| 2026-04-21 19:48 | -29.26129 | -62.30046 | 38072 ft | 378 kts | 322° |
| 2026-04-21 19:49 | -29.21487 | -62.32875 | 38077 ft | 378 kts | 322° |
| 2026-04-21 19:49 | -29.16847 | -62.35700 | 38076 ft | 378 kts | 322° |
| 2026-04-21 19:50 | -29.12988 | -62.38048 | 38075 ft | 378 kts | 322° |
| 2026-04-21 19:50 | -29.07541 | -62.41358 | 38082 ft | 380 kts | 322° |
| 2026-04-21 19:51 | -29.02869 | -62.44194 | 38080 ft | 381 kts | 322° |
| 2026-04-21 19:51 | -28.98974 | -62.46555 | 38079 ft | 382 kts | 322° |
| 2026-04-21 19:52 | -28.94272 | -62.49403 | 38079 ft | 383 kts | 322° |
| 2026-04-21 19:52 | -28.89567 | -62.52251 | 38073 ft | 383 kts | 322° |
| 2026-04-21 19:53 | -28.84850 | -62.55102 | 38076 ft | 384 kts | 322° |
| 2026-04-21 19:53 | -28.80423 | -62.58341 | 38085 ft | 375 kts | 315° |
| 2026-04-21 19:54 | -28.76214 | -62.61866 | 38075 ft | 375 kts | 315° |
| 2026-04-21 19:54 | -28.72002 | -62.65384 | 38071 ft | 376 kts | 315° |
| 2026-04-21 19:55 | -28.67778 | -62.68896 | 38076 ft | 376 kts | 315° |
| 2026-04-21 19:55 | -28.63522 | -62.72424 | 38074 ft | 376 kts | 316° |
| 2026-04-21 19:56 | -28.59304 | -62.75915 | 38078 ft | 375 kts | 316° |
| 2026-04-21 19:56 | -28.55081 | -62.79407 | 38074 ft | 375 kts | 316° |
| 2026-04-21 19:57 | -28.50860 | -62.82893 | 38081 ft | 375 kts | 316° |
| 2026-04-21 19:57 | -28.46640 | -62.86374 | 38081 ft | 375 kts | 316° |
| 2026-04-21 19:58 | -28.42423 | -62.89851 | 38082 ft | 374 kts | 316° |
| 2026-04-21 19:58 | -28.38207 | -62.93323 | 38069 ft | 374 kts | 316° |
| 2026-04-21 19:59 | -28.33990 | -62.96792 | 38079 ft | 374 kts | 316° |
| 2026-04-21 19:59 | -28.29767 | -63.00262 | 38074 ft | 375 kts | 316° |
| 2026-04-21 20:00 | -28.25544 | -63.03729 | 38064 ft | 375 kts | 316° |
| 2026-04-21 20:00 | -28.21312 | -63.07201 | 38076 ft | 375 kts | 316° |
| 2026-04-21 20:01 | -28.17077 | -63.10670 | 38076 ft | 376 kts | 316° |
| 2026-04-21 20:01 | -28.12835 | -63.14143 | 38078 ft | 376 kts | 316° |
| 2026-04-21 20:02 | -28.08592 | -63.17612 | 38077 ft | 376 kts | 316° |
| 2026-04-21 20:02 | -28.04343 | -63.21083 | 38075 ft | 377 kts | 316° |
| 2026-04-21 20:03 | -28.00095 | -63.24550 | 38074 ft | 377 kts | 316° |
| 2026-04-21 20:03 | -27.95842 | -63.28017 | 38079 ft | 377 kts | 316° |
| 2026-04-21 20:04 | -27.91582 | -63.31487 | 38074 ft | 377 kts | 316° |
| 2026-04-21 20:04 | -27.87322 | -63.34953 | 38068 ft | 377 kts | 316° |
| 2026-04-21 20:05 | -27.83060 | -63.38417 | 38074 ft | 377 kts | 317° |
| 2026-04-21 20:05 | -27.78802 | -63.41875 | 38075 ft | 377 kts | 317° |
| 2026-04-21 20:06 | -27.74536 | -63.45336 | 38076 ft | 377 kts | 317° |
| 2026-04-21 20:06 | -27.70272 | -63.48792 | 38069 ft | 378 kts | 317° |
| 2026-04-21 20:07 | -27.66002 | -63.52249 | 38073 ft | 378 kts | 317° |
| 2026-04-21 20:07 | -27.61733 | -63.55702 | 38070 ft | 378 kts | 317° |
| 2026-04-21 20:08 | -27.57457 | -63.59157 | 38073 ft | 378 kts | 317° |
| 2026-04-21 20:08 | -27.53185 | -63.62606 | 38075 ft | 378 kts | 317° |
| 2026-04-21 20:09 | -27.48904 | -63.66059 | 38076 ft | 378 kts | 317° |
| 2026-04-21 20:09 | -27.44589 | -63.69536 | 38072 ft | 379 kts | 317° |
| 2026-04-21 20:10 | -27.40301 | -63.72988 | 38076 ft | 380 kts | 317° |
| 2026-04-21 20:10 | -27.36000 | -63.76447 | 38078 ft | 380 kts | 317° |
| 2026-04-21 20:11 | -27.31692 | -63.79907 | 38080 ft | 381 kts | 317° |
| 2026-04-21 20:11 | -27.27377 | -63.83370 | 38075 ft | 382 kts | 317° |
| 2026-04-21 20:12 | -27.23046 | -63.86843 | 38076 ft | 382 kts | 317° |
| 2026-04-21 20:12 | -27.18713 | -63.90315 | 38070 ft | 383 kts | 318° |
| 2026-04-21 20:13 | -27.14368 | -63.93792 | 38080 ft | 384 kts | 318° |
| 2026-04-21 20:13 | -27.10019 | -63.97269 | 38079 ft | 384 kts | 318° |
| 2026-04-21 20:14 | -27.05661 | -64.00750 | 38083 ft | 385 kts | 318° |
| 2026-04-21 20:14 | -27.01300 | -64.04231 | 38077 ft | 385 kts | 318° |
| 2026-04-21 20:15 | -26.96937 | -64.07709 | 38079 ft | 385 kts | 318° |
| 2026-04-21 20:15 | -26.92594 | -64.11206 | 38089 ft | 384 kts | 317° |
| 2026-04-21 20:16 | -26.88290 | -64.14697 | 38081 ft | 384 kts | 317° |
| 2026-04-21 20:16 | -26.83928 | -64.18231 | 38082 ft | 384 kts | 318° |
| 2026-04-21 20:17 | -26.79631 | -64.21705 | 38095 ft | 384 kts | 318° |
| 2026-04-21 20:17 | -26.75301 | -64.25201 | 38087 ft | 383 kts | 318° |
| 2026-04-21 20:18 | -26.71680 | -64.28123 | 38085 ft | 383 kts | 318° |
| 2026-04-21 20:18 | -26.66650 | -64.32176 | 38089 ft | 383 kts | 318° |
| 2026-04-21 20:19 | -26.62302 | -64.35677 | 38087 ft | 383 kts | 318° |
| 2026-04-21 20:19 | -26.58013 | -64.39127 | 38099 ft | 382 kts | 318° |
| 2026-04-21 20:20 | -26.53664 | -64.42621 | 38094 ft | 382 kts | 318° |
| 2026-04-21 20:20 | -26.51497 | -64.44362 | 37827 ft | 387 kts | 318° |
| 2026-04-21 20:20 | -26.49302 | -64.46126 | 37396 ft | 388 kts | 318° |
| 2026-04-21 20:20 | -26.47618 | -64.47477 | 36976 ft | 386 kts | 318° |
| 2026-04-21 20:21 | -26.45443 | -64.49219 | 36436 ft | 385 kts | 318° |
| 2026-04-21 20:21 | -26.43265 | -64.50964 | 35871 ft | 385 kts | 318° |
| 2026-04-21 20:21 | -26.41086 | -64.52710 | 35274 ft | 386 kts | 318° |
| 2026-04-21 20:21 | -26.38900 | -64.54461 | 34662 ft | 388 kts | 318° |
| 2026-04-21 20:22 | -26.36702 | -64.56222 | 34019 ft | 390 kts | 318° |
| 2026-04-21 20:22 | -26.32272 | -64.59766 | 32660 ft | 393 kts | 319° |
| 2026-04-21 20:22 | -26.30051 | -64.61541 | 32185 ft | 390 kts | 319° |
| 2026-04-21 20:23 | -26.27851 | -64.63295 | 31713 ft | 388 kts | 319° |
| 2026-04-21 20:23 | -26.25668 | -64.65036 | 31264 ft | 385 kts | 319° |
| 2026-04-21 20:23 | -26.23502 | -64.66764 | 30811 ft | 382 kts | 319° |
| 2026-04-21 20:23 | -26.21343 | -64.68485 | 30370 ft | 379 kts | 319° |
| 2026-04-21 20:24 | -26.19204 | -64.70191 | 29878 ft | 377 kts | 319° |
| 2026-04-21 20:24 | -26.17079 | -64.71884 | 29379 ft | 375 kts | 319° |
| 2026-04-21 20:24 | -26.14968 | -64.73566 | 28919 ft | 372 kts | 319° |
| 2026-04-21 20:24 | -26.12871 | -64.75236 | 28444 ft | 370 kts | 319° |
| 2026-04-21 20:25 | -26.10811 | -64.76876 | 28007 ft | 367 kts | 319° |
| 2026-04-21 20:25 | -26.08738 | -64.78525 | 27552 ft | 365 kts | 319° |
| 2026-04-21 20:25 | -26.06681 | -64.80161 | 27117 ft | 364 kts | 319° |
| 2026-04-21 20:25 | -26.04606 | -64.81814 | 26691 ft | 372 kts | 319° |
| 2026-04-21 20:26 | -26.02470 | -64.83518 | 26241 ft | 383 kts | 320° |
| 2026-04-21 20:26 | -26.00303 | -64.85240 | 25762 ft | 382 kts | 320° |
| 2026-04-21 20:26 | -25.98152 | -64.86945 | 25305 ft | 378 kts | 320° |
| 2026-04-21 20:26 | -25.96010 | -64.88641 | 24834 ft | 376 kts | 320° |
| 2026-04-21 20:27 | -25.93882 | -64.90327 | 24368 ft | 376 kts | 320° |
| 2026-04-21 20:27 | -25.91759 | -64.92010 | 23898 ft | 375 kts | 320° |
| 2026-04-21 20:27 | -25.89632 | -64.93696 | 23385 ft | 375 kts | 320° |
| 2026-04-21 20:27 | -25.87515 | -64.95372 | 22889 ft | 373 kts | 320° |
| 2026-04-21 20:28 | -25.85411 | -64.97038 | 22418 ft | 370 kts | 320° |
| 2026-04-21 20:28 | -25.83322 | -64.98690 | 21967 ft | 368 kts | 320° |
| 2026-04-21 20:28 | -25.81247 | -65.00332 | 21517 ft | 365 kts | 320° |
| 2026-04-21 20:28 | -25.79180 | -65.01966 | 21075 ft | 363 kts | 321° |
| 2026-04-21 20:29 | -25.77130 | -65.03588 | 20632 ft | 361 kts | 321° |
| 2026-04-21 20:29 | -25.75750 | -65.04679 | 20336 ft | 360 kts | 321° |
| 2026-04-21 20:29 | -25.73708 | -65.06292 | 19882 ft | 359 kts | 321° |
| 2026-04-21 20:29 | -25.71017 | -65.08416 | 19286 ft | 358 kts | 321° |
| 2026-04-21 20:30 | -25.69642 | -65.09490 | 18989 ft | 358 kts | 322° |
| 2026-04-21 20:30 | -25.67532 | -65.10966 | 18550 ft | 360 kts | 325° |
| 2026-04-21 20:30 | -25.65367 | -65.12367 | 18061 ft | 360 kts | 326° |
| 2026-04-21 20:30 | -25.63200 | -65.13743 | 17616 ft | 358 kts | 326° |
| 2026-04-21 20:31 | -25.61043 | -65.15116 | 17171 ft | 357 kts | 326° |
| 2026-04-21 20:31 | -25.58894 | -65.16496 | 16723 ft | 356 kts | 326° |
| 2026-04-21 20:31 | -25.56764 | -65.17872 | 16280 ft | 354 kts | 326° |
| 2026-04-21 20:31 | -25.54649 | -65.19245 | 15865 ft | 352 kts | 326° |
| 2026-04-21 20:32 | -25.52543 | -65.20616 | 15435 ft | 351 kts | 327° |
| 2026-04-21 20:32 | -25.50445 | -65.21981 | 15007 ft | 350 kts | 327° |
| 2026-04-21 20:32 | -25.48345 | -65.23349 | 14565 ft | 349 kts | 327° |
| 2026-04-21 20:32 | -25.46252 | -65.24711 | 14135 ft | 349 kts | 327° |
| 2026-04-21 20:33 | -25.44159 | -65.26073 | 13680 ft | 349 kts | 328° |
| 2026-04-21 20:33 | -25.42070 | -65.27430 | 13235 ft | 348 kts | 328° |
| 2026-04-21 20:33 | -25.39988 | -65.28783 | 12796 ft | 346 kts | 328° |
| 2026-04-21 20:33 | -25.37923 | -65.30125 | 12370 ft | 343 kts | 328° |
| 2026-04-21 20:34 | -25.35873 | -65.31458 | 11959 ft | 340 kts | 329° |
| 2026-04-21 20:34 | -25.33843 | -65.32778 | 11555 ft | 338 kts | 329° |
| 2026-04-21 20:34 | -25.31822 | -65.34090 | 11208 ft | 333 kts | 329° |
| 2026-04-21 20:34 | -25.29857 | -65.35365 | 11038 ft | 324 kts | 330° |
| 2026-04-21 20:35 | -25.27921 | -65.36622 | 10710 ft | 321 kts | 330° |
| 2026-04-21 20:35 | -25.26006 | -65.37863 | 10406 ft | 318 kts | 330° |
| 2026-04-21 20:35 | -25.24114 | -65.39091 | 10097 ft | 315 kts | 330° |
| 2026-04-21 20:35 | -25.22265 | -65.40290 | 10001 ft | 297 kts | 331° |
| 2026-04-21 20:36 | -25.21642 | -65.40694 | 9991 ft | 289 kts | 331° |
| 2026-04-21 20:36 | -25.19960 | -65.41782 | 9440 ft | 289 kts | 331° |
| 2026-04-21 20:36 | -25.18242 | -65.42894 | 9006 ft | 284 kts | 331° |
| 2026-04-21 20:37 | -25.16566 | -65.43979 | 8699 ft | 275 kts | 331° |
| 2026-04-21 20:37 | -25.14945 | -65.45034 | 8432 ft | 266 kts | 331° |
| 2026-04-21 20:37 | -25.13378 | -65.46057 | 8187 ft | 258 kts | 331° |
| 2026-04-21 20:37 | -25.11846 | -65.47056 | 7993 ft | 252 kts | 331° |
| 2026-04-21 20:38 | -25.10360 | -65.48025 | 7759 ft | 245 kts | 331° |
| 2026-04-21 20:38 | -25.08907 | -65.48971 | 7525 ft | 239 kts | 331° |
| 2026-04-21 20:38 | -25.07491 | -65.49894 | 7288 ft | 234 kts | 332° |
| 2026-04-21 20:38 | -25.06110 | -65.50792 | 7077 ft | 226 kts | 332° |
| 2026-04-21 20:39 | -25.04773 | -65.51662 | 6871 ft | 220 kts | 332° |
| 2026-04-21 20:39 | -25.03389 | -65.52205 | 6664 ft | 206 kts | 4° |
| 2026-04-21 20:39 | -25.02011 | -65.52033 | 6581 ft | 199 kts | 7° |
| 2026-04-21 20:39 | -25.00631 | -65.51881 | 6445 ft | 200 kts | 9° |
| 2026-04-21 20:40 | -24.99276 | -65.51633 | 6291 ft | 193 kts | 12° |
| 2026-04-21 20:40 | -24.98008 | -65.51357 | 6163 ft | 178 kts | 13° |
| 2026-04-21 20:40 | -24.96798 | -65.51089 | 6014 ft | 176 kts | 13° |
| 2026-04-21 20:40 | -24.95605 | -65.50826 | 5823 ft | 171 kts | 13° |
| 2026-04-21 20:41 | -24.94462 | -65.50575 | 5576 ft | 165 kts | 14° |
| 2026-04-21 20:41 | -24.93344 | -65.50328 | 5350 ft | 164 kts | 13° |
| 2026-04-21 20:41 | -24.92227 | -65.50082 | 5136 ft | 164 kts | 13° |
| 2026-04-21 20:41 | -24.91115 | -65.49834 | 4950 ft | 162 kts | 14° |
| 2026-04-21 20:42 | -24.90021 | -65.49586 | 4718 ft | 160 kts | 13° |
| 2026-04-21 20:42 | -24.88929 | -65.49350 | 4472 ft | 160 kts | 14° |
| 2026-04-21 20:42 | -24.87849 | -65.49111 | 4186 ft | 157 kts | 13° |
| 2026-04-21 20:42 | -24.86790 | -65.48874 | 4022 ft | 150 kts | 12° |
| 2026-04-21 20:43 | -24.85856 | -65.48679 | 4018 ft | 121 kts | 11° |
| 2026-04-21 20:43 | -24.85164 | -65.48533 | 4017 ft | 66 kts | 11° |
| 2026-04-21 20:43 | -24.84886 | -65.48473 | 4017 ft | 31 kts | 11° |
| 2026-04-21 20:43 | -24.84727 | -65.48436 | 4016 ft | 18 kts | 21° |
| 2026-04-21 20:44 | -24.84650 | -65.48368 | 4005 ft | 13 kts | 42° |
| 2026-04-21 20:44 | -24.84598 | -65.48293 | 4016 ft | 12 kts | 67° |
| 2026-04-21 20:44 | -24.84573 | -65.48210 | 4016 ft | 12 kts | 72° |
| 2026-04-21 20:44 | -24.84547 | -65.48122 | 4016 ft | 12 kts | 72° |
| 2026-04-21 20:45 | -24.84522 | -65.48037 | 4016 ft | 12 kts | 72° |
| 2026-04-21 20:45 | -24.84500 | -65.47954 | 4016 ft | 11 kts | 87° |
| 2026-04-21 20:45 | -24.84495 | -65.47912 | 4016 ft | 5 kts | 46° |
| 2026-04-21 20:45 | -24.84476 | -65.47901 | 4016 ft | 1 kts | 22° |
| 2026-04-21 20:46 | -24.84470 | -65.47899 | 4016 ft | 0 kts | 22° |